Latest Weather Observations for Hervey Bay

IDQ60801

Issued at 2:32 pm EST Tuesday 12 December 2017 (issued every 30 minutes, with the page automatically refreshed every 10 minutes)

About weather observations | Map of weather stations | Latest weather observations for QLD | Other Formats
Station Details ID: 040405 Name: HERVEY BAY AIRPORT Lat: -25.32 Lon: 152.88 Height: 12.98 m
Data from the previous 72 hours. | See also: Recent months at Hervey Bay
Date/Time
EST
Temp
°C
App
Temp
°C
Dew
Point
°C
Rel
Hum
%
Delta-T
°C
Wind Press
QNH
hPa
Press
MSL
hPa
Rain since
9am
mm
Dir  Spd
km/h
Gust
km/h
Spd
kts
Gust
kts
12/02:30pm 27.7 25.7 17.5 53 6.4 SE 24 35 13 19 1013.9 1013.8 0.0
12/02:00pm 27.4 25.0 17.3 54 6.3 SE 26 39 14 21 1014.0 1013.9 0.0
12/01:30pm 27.7 25.7 17.3 53 6.5 SSE 24 37 13 20 1014.1 1014.0 0.0
12/01:00pm 28.3 27.1 17.5 52 6.8 SE 20 39 11 21 1014.3 1014.2 0.0
12/12:30pm 27.4 25.4 17.3 54 6.3 SE 24 35 13 19 1014.5 1014.4 0.0
12/12:00pm 27.6 25.8 16.9 52 6.7 SSE 22 37 12 20 1014.9 1014.8 0.0
12/11:30am 27.6 25.6 17.5 54 6.4 SE 24 41 13 22 1015.1 1015.0 0.0
12/11:00am 27.5 25.6 17.7 55 6.2 SE 24 35 13 19 1015.3 1015.2 0.0
12/10:30am 27.0 24.6 16.3 52 6.6 SSE 24 35 13 19 1015.5 1015.4 0.0
12/10:00am 27.3 26.0 16.9 53 6.5 SSE 19 33 10 18 1015.5 1015.4 0.0
12/09:30am 26.7 24.4 15.7 51 6.7 SSE 22 33 12 18 1015.6 1015.5 0.0
12/09:00am 26.3 24.2 16.3 54 6.1 SE 22 35 12 19 1015.5 1015.4 0.0
12/08:30am 25.7 24.7 17.6 61 5.1 S 19 26 10 14 1015.5 1015.4 0.0
12/08:00am 24.9 23.9 17.6 64 4.6 S 19 28 10 15 1015.3 1015.2 0.0
12/07:30am 23.9 23.7 17.6 68 3.9 S 15 28 8 15 1015.2 1015.1 0.0
12/07:00am 23.0 23.0 18.1 74 3.1 SSW 15 22 8 12 1015.1 1015.0 0.0
12/06:30am 22.0 22.2 18.6 81 2.1 SSW 15 24 8 13 1014.9 1014.8 0.0
12/06:00am 20.8 21.4 18.7 88 1.3 SSW 13 20 7 11 1014.6 1014.5 0.0
12/05:30am 19.8 21.0 18.3 91 0.9 SSW 9 17 5 9 1014.5 1014.4 0.0
12/05:00am 19.6 20.7 18.1 91 0.9 SSW 9 11 5 6 1014.2 1014.1 0.0
12/04:30am 19.8 20.7 18.3 91 0.9 SSW 11 15 6 8 1014.1 1014.0 0.0
12/04:00am 20.2 21.2 18.7 91 0.9 SSW 11 15 6 8 1014.0 1013.9 0.0
12/03:30am 20.4 21.4 18.7 90 1.1 SSW 11 17 6 9 1013.9 1013.8 0.0
12/03:00am 20.8 21.5 18.9 89 1.2 SSW 13 17 7 9 1013.9 1013.8 0.0
12/02:30am 20.8 21.8 18.6 87 1.4 SSW 11 15 6 8 1013.9 1013.8 0.0
12/02:00am 21.2 22.5 18.4 84 1.7 SSW 9 13 5 7 1014.0 1013.9 0.0
12/01:30am 21.8 22.6 18.2 80 2.2 SSW 11 15 6 8 1014.3 1014.2 0.0
12/01:00am 22.3 23.4 18.1 77 2.6 S 9 11 5 6 1014.6 1014.5 0.0
12/12:30am 22.4 23.7 17.5 74 3.0 SSE 7 13 4 7 1014.9 1014.8 0.0
12/12:00am 22.9 23.2 17.8 73 3.2 SE 13 20 7 11 1015.2 1015.1 0.0
 
Date/Time
EST
Temp
°C
App
Temp
°C
Dew
Point
°C
Rel
Hum
%
Delta-T
°C
Wind Press
QNH
hPa
Press
MSL
hPa
Rain since
9am
mm
Dir  Spd
km/h
Gust
km/h
Spd
kts
Gust
kts
11/11:30pm 22.9 23.6 18.0 74 3.1 SSE 11 19 6 10 1015.6 1015.5 0.0
11/11:00pm 22.9 22.8 17.8 73 3.2 SE 15 22 8 12 1015.7 1015.6 0.0
11/10:30pm 23.4 23.7 18.7 75 3.0 SE 15 26 8 14 1015.8 1015.7 0.0
11/10:00pm 23.3 22.9 18.8 76 2.8 SE 19 28 10 15 1015.8 1015.7 0.0
11/09:30pm 23.5 23.4 18.8 75 3.0 SE 17 28 9 15 1015.7 1015.6 0.0
11/09:00pm 23.5 23.7 18.6 74 3.1 SSE 15 24 8 13 1015.5 1015.4 0.0
11/08:30pm 23.4 23.8 18.1 72 3.3 SSE 13 19 7 10 1015.3 1015.2 0.0
11/08:00pm 23.7 23.8 17.4 68 3.9 SSE 13 20 7 11 1015.1 1015.0 0.0
11/07:30pm 23.8 24.1 17.8 69 3.7 SSE 13 19 7 10 1015.0 1014.9 0.0
11/07:00pm 24.4 24.3 17.9 67 4.1 SSE 15 22 8 12 1015.0 1014.9 0.0
11/06:30pm 24.6 24.9 17.8 66 4.3 SE 13 19 7 10 1014.9 1014.8 0.0
11/06:00pm 24.9 24.2 17.4 63 4.7 SE 17 24 9 13 1014.5 1014.4 0.0
11/05:30pm 25.8 24.9 17.7 61 5.1 SE 19 33 10 18 1014.0 1013.9 0.0
11/05:00pm 26.3 25.7 18.4 61 5.0 SE 19 30 10 16 1013.8 1013.7 0.0
11/04:30pm 25.9 25.0 18.1 62 4.9 SE 20 28 11 15 1013.7 1013.6 0.0
11/04:00pm 27.1 25.8 17.3 55 6.1 SE 20 30 11 16 1013.5 1013.4 0.0
11/03:30pm 27.2 26.0 17.4 55 6.2 SE 20 30 11 16 1013.6 1013.5 0.0
11/03:00pm 28.2 26.8 17.1 51 7.0 SE 20 33 11 18 1013.6 1013.5 0.0
11/02:30pm 28.0 25.7 15.6 46 7.6 SE 22 33 12 18 1014.0 1013.9 0.0
11/02:00pm 28.3 26.2 15.2 44 8.0 SE 20 32 11 17 1014.1 1014.0 0.0
11/01:30pm 27.9 25.5 16.5 50 7.1 ESE 24 33 13 18 1014.4 1014.3 0.0
11/01:00pm 28.5 27.0 18.6 55 6.4 ESE 24 33 13 18 1014.4 1014.3 0.0
11/12:30pm 28.1 26.2 17.6 53 6.6 ESE 24 35 13 19 1014.9 1014.8 0.0
11/12:00pm 28.4 26.1 16.7 49 7.3 ESE 24 35 13 19 1015.3 1015.2 0.0
11/11:30am 28.2 26.5 17.1 51 7.0 SE 22 39 12 21 1015.7 1015.6 0.0
11/11:00am 28.3 27.1 17.5 52 6.8 SE 20 32 11 17 1015.9 1015.8 0.0
11/10:30am 27.7 26.5 17.5 53 6.4 SE 20 32 11 17 1016.1 1016.0 0.0
11/10:00am 27.5 26.4 17.7 55 6.2 SSE 20 30 11 16 1016.2 1016.1 0.0
11/09:30am 27.2 26.1 17.4 55 6.2 SE 19 28 10 15 1016.2 1016.1 0.0
11/09:00am 26.9 27.5 19.5 64 4.8 SSE 15 26 8 14 1016.3 1016.2 0.2
11/08:30am 26.2 26.7 19.3 65 4.4 SSE 15 22 8 12 1016.4 1016.3 0.2
11/08:00am 24.6 25.1 19.2 72 3.5 SSE 15 24 8 13 1016.5 1016.4 0.2
11/07:30am 24.0 24.6 19.5 76 2.9 S 15 24 8 13 1016.5 1016.4 0.2
11/07:00am 23.8 24.5 18.9 74 3.1 S 13 17 7 9 1016.3 1016.2 0.2
11/06:30am 23.2 24.2 20.3 84 1.9 S 15 24 8 13 1016.1 1016.0 0.2
11/06:00am 20.9 21.9 19.4 91 0.9 SSW 13 17 7 9 1015.8 1015.7 0.2
11/05:30am 20.5 22.1 19.2 92 0.8 SW 9 13 5 7 1015.7 1015.6 0.2
11/05:00am 20.3 21.7 18.6 90 1.1 SW 9 11 5 6 1015.4 1015.3 0.2
11/04:30am 20.5 22.2 18.6 89 1.2 SW 7 9 4 5 1015.3 1015.2 0.2
11/04:00am 20.8 21.8 18.6 87 1.4 SSW 11 17 6 9 1015.1 1015.0 0.2
11/03:30am 20.6 21.3 18.0 85 1.6 SSW 11 15 6 8 1015.0 1014.9 0.2
11/03:00am 21.1 22.4 18.5 85 1.6 SSW 9 13 5 7 1015.0 1014.9 0.2
11/02:30am 21.4 21.8 18.2 82 2.0 S 13 20 7 11 1015.2 1015.1 0.2
11/02:00am 21.8 22.8 17.8 78 2.5 S 9 17 5 9 1015.4 1015.3 0.2
11/01:30am 22.0 23.0 17.8 77 2.6 S 9 15 5 8 1015.4 1015.3 0.2
11/01:00am 22.6 23.4 18.2 76 2.8 S 11 15 6 8 1015.9 1015.8 0.2
11/12:30am 22.5 23.4 18.3 77 2.6 S 11 28 6 15 1016.2 1016.1 0.2
11/12:00am 22.4 23.7 18.4 78 2.5 S 9 11 5 6 1016.5 1016.4 0.2
 
Date/Time
EST
Temp
°C
App
Temp
°C
Dew
Point
°C
Rel
Hum
%
Delta-T
°C
Wind Press
QNH
hPa
Press
MSL
hPa
Rain since
9am
mm
Dir  Spd
km/h
Gust
km/h
Spd
kts
Gust
kts
10/11:30pm 22.4 23.9 18.0 76 2.7 S 7 11 4 6 1016.8 1016.7 0.2
10/11:00pm 23.0 24.1 18.1 74 3.1 SSE 9 17 5 9 1017.0 1016.9 0.2
10/10:30pm 23.4 24.0 18.5 74 3.1 SE 13 22 7 12 1017.4 1017.3 0.2
10/10:00pm 23.5 23.5 19.0 76 2.9 SE 17 30 9 16 1017.6 1017.5 0.2
10/09:30pm 23.0 24.3 18.5 76 2.8 SSE 9 17 5 9 1017.5 1017.4 0.2
10/09:00pm 23.0 23.5 18.3 75 2.9 S 13 20 7 11 1017.5 1017.4 0.2
10/08:30pm 23.3 24.2 18.4 74 3.1 SSE 11 17 6 9 1017.3 1017.2 0.2
10/08:00pm 23.4 24.3 18.3 73 3.2 S 11 19 6 10 1017.1 1017.0 0.2
10/07:30pm 23.9 24.0 18.3 71 3.5 SSE 15 22 8 12 1016.7 1016.6 0.2
10/07:00pm 24.2 23.3 17.7 67 4.1 SSE 19 30 10 16 1016.5 1016.4 0.2
10/06:30pm 24.6 23.7 17.8 66 4.3 SSE 19 28 10 15 1016.4 1016.3 0.2
10/06:00pm 25.4 25.1 17.3 61 5.0 SE 15 28 8 15 1016.3 1016.2 0.2
10/05:30pm 25.9 25.4 17.8 61 5.1 SE 17 24 9 13 1016.0 1015.9 0.2
10/05:00pm 26.4 25.1 17.2 57 5.7 SE 20 35 11 19 1015.8 1015.7 0.2
10/04:30pm 26.7 24.0 16.6 54 6.3 SSE 26 39 14 21 1015.6 1015.5 0.2
10/04:00pm 27.5 25.5 17.4 54 6.3 SSE 24 41 13 22 1015.5 1015.4 0.2
10/03:30pm 27.5 25.8 17.1 53 6.5 SE 22 33 12 18 1015.5 1015.4 0.2
10/03:00pm 27.3 24.8 17.2 54 6.3 SE 26 37 14 20 1015.7 1015.6 0.2
10/02:30pm 27.5 25.7 17.9 55 6.1 SSE 24 37 13 20 1016.0 1015.9 0.2
10/02:00pm 28.3 26.8 19.5 59 5.7 SSE 26 41 14 22 1016.1 1016.0 0.2
10/01:30pm 27.9 26.5 18.9 58 5.8 SE 24 39 13 21 1016.3 1016.2 0.2
10/01:00pm 27.9 26.4 18.6 57 6.0 SE 24 35 13 19 1016.5 1016.4 0.2
10/12:30pm 27.6 26.2 18.0 55 6.1 SE 22 39 12 21 1016.7 1016.6 0.2
10/12:00pm 27.8 25.9 18.5 57 5.9 SE 26 39 14 21 1016.9 1016.8 0.2
10/11:30am 28.0 26.3 19.0 58 5.8 SSE 26 39 14 21 1017.1 1017.0 0.2
10/11:00am 27.6 25.6 19.1 59 5.5 SSE 28 39 15 21 1017.2 1017.1 0.2
10/10:30am 26.4 24.5 18.5 62 5.0 SSE 26 39 14 21 1017.3 1017.2 0.2
10/10:00am 26.8 26.9 19.9 66 4.5 SSE 19 35 10 19 1017.4 1017.3 0.2
10/09:30am 25.9 25.8 20.0 70 3.8 SSE 20 35 11 19 1017.4 1017.3 0.2
10/09:00am 25.3 25.2 19.9 72 3.5 S 20 28 11 15 1017.4 1017.3 0.0
10/08:30am 25.1 25.8 20.4 75 3.1 S 17 26 9 14 1017.3 1017.2 0.0
10/08:00am 24.1 23.8 19.6 76 2.9 SSW 20 32 11 17 1017.3 1017.2 0.0
10/07:30am 23.6 23.9 19.5 78 2.6 S 17 24 9 13 1017.2 1017.1 0.0
10/07:00am 22.9 23.5 19.5 81 2.2 S 15 26 8 14 1016.9 1016.8 0.0
10/06:30am 21.8 22.3 19.2 85 1.6 SSW 15 20 8 11 1016.7 1016.6 0.0
10/06:00am 20.4 21.3 18.5 89 1.2 SSW 11 15 6 8 1016.4 1016.3 0.0
10/05:30am 19.5 19.8 17.8 90 1.0 SSW 13 17 7 9 1016.0 1015.9 0.0
10/05:00am 18.9 18.9 17.2 90 1.0 SSW 13 17 7 9 1015.9 1015.8 0.0
10/04:30am 18.9 18.5 17.2 90 1.0 SSW 15 19 8 10 1015.9 1015.8 0.0
10/04:00am 19.1 19.1 17.2 89 1.2 SSW 13 20 7 11 1015.7 1015.6 0.0
10/03:30am 19.2 19.2 17.3 89 1.2 SSW 13 17 7 9 1015.5 1015.4 0.0
10/03:00am 19.3 19.1 17.6 90 1.0 SSW 15 20 8 11 1015.1 1015.0 0.0
10/02:30am 19.3 19.4 17.4 89 1.2 SSW 13 22 7 12 1015.1 1015.0 0.0
10/02:00am 19.4 19.5 17.4 88 1.2 SW 13 19 7 10 1015.3 1015.2 0.0
10/01:30am 19.5 19.5 17.1 86 1.5 SW 13 19 7 10 1015.8 1015.7 0.0
10/01:00am 20.1 20.3 16.7 81 2.1 SW 11 17 6 9 1016.1 1016.0 0.0
10/12:30am 20.5 21.0 16.5 78 2.4 S 9 13 5 7 1016.5 1016.4 0.0
10/12:00am 21.3 21.2 16.0 72 3.2 S 11 24 6 13 1016.9 1016.8 0.0
 
Date/Time
EST
Temp
°C
App
Temp
°C
Dew
Point
°C
Rel
Hum
%
Delta-T
°C
Wind Press
QNH
hPa
Press
MSL
hPa
Rain since
9am
mm
Dir  Spd
km/h
Gust
km/h
Spd
kts
Gust
kts
09/11:30pm 21.8 19.5 16.7 73 3.1 E 24 33 13 18 1015.9 1015.8 0.0
09/11:00pm 22.3 21.6 16.3 69 3.6 SE 15 24 8 13 1017.5 1017.4 0.0
09/10:30pm 22.1 20.1 16.4 70 3.5 SSE 22 39 12 21 1018.3 1018.2 0.0
09/10:15pm 23.5 20.9 17.9 71 3.5 SSE 28 43 15 23 1018.4 1018.3 0.0
09/10:00pm 24.8 25.7 20.9 79 2.6 SE 17 24 9 13 1017.9 1017.8 0.0
09/09:30pm 24.1 26.3 20.4 80 2.4 SE 9 13 5 7 1017.1 1017.0 0.0
09/09:00pm 24.3 26.7 20.0 77 2.8 SE 7 11 4 6 1016.2 1016.1 0.0
09/08:30pm 25.3 26.2 20.1 73 3.4 NNE 15 20 8 11 1014.8 1014.7 0.0
09/08:00pm 24.8 26.7 19.8 74 3.2 N 9 13 5 7 1014.9 1014.8 0.0
09/07:30pm 25.1 27.3 19.7 72 3.5 NNE 7 11 4 6 1015.2 1015.1 0.0
09/07:00pm 25.6 27.6 19.9 70 3.7 N 9 13 5 7 1015.0 1014.9 0.0
09/06:30pm 26.0 27.0 20.3 71 3.7 NNE 15 20 8 11 1014.4 1014.3 0.0
09/06:00pm 26.5 27.8 20.8 71 3.8 N 15 22 8 12 1013.8 1013.7 0.0
09/05:30pm 27.2 27.5 20.3 66 4.5 NNE 19 24 10 13 1013.1 1013.0 0.0
09/05:00pm 27.5 28.4 20.8 67 4.4 N 17 24 9 13 1013.2 1013.1 0.0
09/04:30pm 27.4 27.3 20.0 64 4.8 NNE 20 26 11 14 1013.0 1012.9 0.0
09/04:00pm 28.1 28.4 20.4 63 5.1 NNE 19 26 10 14 1013.1 1013.0 0.0
09/03:30pm 28.5 28.4 20.0 60 5.6 N 20 30 11 16 1013.3 1013.2 0.0
09/03:00pm 29.2 29.7 19.2 54 6.5 N 15 20 8 11 1013.4 1013.3 0.0

Other Formats:

Comma delimited format used in spreadsheet applications
http://www.bom.gov.au/fwo/IDQ60801/IDQ60801.95565.axf

JavaScript Object Notation format (JSON) in row-major order
http://www.bom.gov.au/fwo/IDQ60801/IDQ60801.95565.json